Time;durP1;ratioP1;P1;durP2;ratioP2;P2;SDS_P1;SDS_P2;PMS_P1;PMS_P2;Temp;Humidity;BMP_temperature;BMP_pressure;BME280_temperature;BME280_humidity;BME280_pressure;Samples;Min_cycle;Max_cycle;Signal;HPM_P1;HPM_P2
2024/04/12 00:01:22;;;;;;;5.60;2.92;;;16.90;96.70;;;;;;5402628;26;19996;-83
2024/04/12 00:03:52;;;;;;;5.35;2.65;;;16.90;96.70;;;;;;5352041;26;20015;-83
2024/04/12 00:06:25;;;;;;;5.05;2.20;;;16.80;96.70;;;;;;5379380;26;20008;-83
2024/04/12 00:08:54;;;;;;;5.05;2.53;;;16.90;96.70;;;;;;5360402;26;20027;-83
2024/04/12 00:11:25;;;;;;;4.35;2.60;;;16.90;96.70;;;;;;5374442;26;20011;-82
2024/04/12 00:14:00;;;;;;;3.97;2.63;;;17.00;96.70;;;;;;5373909;26;20000;-83
2024/04/12 00:16:29;;;;;;;6.80;2.70;;;17.00;96.70;;;;;;5373627;26;20085;-82
2024/04/12 00:19:07;;;;;;;3.35;2.35;;;17.00;96.70;;;;;;5373417;26;19996;-83
2024/04/12 00:21:41;;;;;;;4.90;2.95;;;17.10;96.70;;;;;;5407596;26;20000;-82
2024/04/12 00:24:12;;;;;;;6.15;2.72;;;17.00;96.70;;;;;;5376835;26;20012;-83
2024/04/12 00:26:45;;;;;;;4.45;2.70;;;17.00;96.70;;;;;;5407280;26;20007;-83
2024/04/12 00:29:30;;;;;;;3.97;2.65;;;16.80;96.70;;;;;;5408052;26;20011;-83
2024/04/12 00:32:13;;;;;;;2.85;2.40;;;16.90;96.70;;;;;;5408279;26;19999;-83
2024/04/12 00:34:51;;;;;;;4.72;2.78;;;16.90;96.70;;;;;;5401631;26;20004;-82
2024/04/12 00:37:21;;;;;;;4.07;2.35;;;16.80;96.70;;;;;;5372547;26;20019;-83
2024/04/12 00:39:54;;;;;;;3.05;2.22;;;16.80;96.70;;;;;;5367211;26;20132;-83
2024/04/12 00:42:31;;;;;;;2.97;2.58;;;16.70;96.70;;;;;;5405318;26;20000;-83
2024/04/12 00:45:11;;;;;;;4.20;2.30;;;16.70;96.70;;;;;;5408491;26;20009;-81
2024/04/12 00:47:43;;;;;;;4.80;2.53;;;16.70;96.70;;;;;;5378883;26;20010;-82
2024/04/12 00:50:16;;;;;;;5.38;2.83;;;16.70;96.70;;;;;;5408157;26;20870;-83
2024/04/12 00:52:46;;;;;;;4.20;2.47;;;16.60;96.70;;;;;;5388346;26;20010;-82
2024/04/12 00:55:17;;;;;;;6.25;2.42;;;16.60;96.70;;;;;;5407612;26;19999;-82
2024/04/12 00:57:47;;;;;;;6.25;2.55;;;16.60;96.70;;;;;;5391433;26;20047;-82
2024/04/12 01:00:19;;;;;;;3.50;2.47;;;16.70;96.70;;;;;;5373011;26;20001;-82
2024/04/12 01:02:51;;;;;;;4.75;2.97;;;16.60;96.70;;;;;;5372582;26;20397;-83
2024/04/12 01:05:22;;;;;;;3.40;2.33;;;16.50;96.70;;;;;;5386558;26;20007;-82
2024/04/12 01:07:55;;;;;;;2.55;2.30;;;16.50;96.70;;;;;;5400939;26;20059;-83
2024/04/12 01:10:25;;;;;;;5.05;2.60;;;16.50;96.70;;;;;;5372665;26;20004;-82
2024/04/12 01:12:57;;;;;;;3.30;2.40;;;16.60;96.70;;;;;;5372448;26;20098;-82
2024/04/12 01:15:38;;;;;;;3.70;2.25;;;16.60;96.70;;;;;;5371527;26;20106;-82
2024/04/12 01:18:14;;;;;;;3.85;2.40;;;16.50;96.70;;;;;;5402421;26;20004;-82
2024/04/12 01:20:45;;;;;;;2.78;2.15;;;16.50;96.70;;;;;;5401141;26;20077;-83
2024/04/12 01:23:16;;;;;;;3.30;2.95;;;16.50;96.70;;;;;;5391382;26;20078;-83
2024/04/12 01:25:51;;;;;;;3.75;2.40;;;16.40;96.70;;;;;;5378224;26;20003;-82
2024/04/12 01:28:19;;;;;;;3.45;2.38;;;16.40;96.70;;;;;;5408976;26;19996;-83
2024/04/12 01:30:50;;;;;;;6.68;2.83;;;16.40;96.70;;;;;;5436655;26;20007;-82
2024/04/12 01:33:25;;;;;;;3.70;2.70;;;16.40;96.70;;;;;;5403041;26;20124;-83
2024/04/12 01:35:55;;;;;;;3.97;2.35;;;16.40;96.70;;;;;;5374241;26;20004;-82
2024/04/12 01:38:25;;;;;;;6.20;2.97;;;16.30;96.70;;;;;;5407932;26;20342;-83
2024/04/12 01:40:57;;;;;;;4.15;2.40;;;16.30;96.70;;;;;;5376673;26;20019;-82
2024/04/12 01:43:32;;;;;;;5.05;2.72;;;16.30;96.70;;;;;;5407014;26;20059;-82
2024/04/12 01:46:04;;;;;;;5.97;2.88;;;16.20;96.70;;;;;;5378195;26;20031;-82
2024/04/12 01:48:34;;;;;;;4.65;2.42;;;16.20;96.70;;;;;;5377732;26;20006;-82
2024/04/12 01:51:06;;;;;;;3.70;2.40;;;16.30;96.70;;;;;;5363521;26;20001;-82
2024/04/12 01:53:38;;;;;;;3.95;2.78;;;16.20;96.70;;;;;;5428641;26;20035;-82
2024/04/12 01:56:09;;;;;;;3.85;2.38;;;16.30;96.70;;;;;;5406956;26;19999;-82
2024/04/12 01:58:42;;;;;;;5.00;2.70;;;16.30;96.70;;;;;;5400199;26;20150;-82
2024/04/12 02:01:14;;;;;;;3.75;2.70;;;16.20;96.70;;;;;;5372275;26;20155;-82
2024/04/12 02:03:45;;;;;;;4.43;2.58;;;16.20;96.70;;;;;;5410784;26;20000;-82
2024/04/12 02:06:16;;;;;;;5.25;2.58;;;16.20;96.70;;;;;;5377696;26;20338;-82
2024/04/12 02:08:46;;;;;;;3.60;2.55;;;16.10;96.70;;;;;;5355094;26;20029;-82
2024/04/12 02:11:23;;;;;;;4.47;2.70;;;16.10;96.70;;;;;;5371179;26;20019;-82
2024/04/12 02:13:55;;;;;;;4.03;2.45;;;16.10;96.70;;;;;;5371803;26;20032;-82
2024/04/12 02:16:23;;;;;;;4.30;2.47;;;16.00;96.70;;;;;;5406155;26;20000;-82
2024/04/12 02:18:53;;;;;;;3.35;2.33;;;16.00;96.70;;;;;;5406683;26;20039;-82
2024/04/12 02:21:31;;;;;;;4.68;2.15;;;15.90;96.70;;;;;;5378067;26;20003;-82
2024/04/12 02:24:01;;;;;;;4.25;2.50;;;15.70;96.70;;;;;;5399408;26;20007;-82
2024/04/12 02:26:35;;;;;;;4.65;2.08;;;15.70;96.70;;;;;;5375577;26;20069;-82
2024/04/12 02:29:04;;;;;;;5.45;2.75;;;15.70;96.70;;;;;;5377707;26;20401;-82
2024/04/12 02:31:35;;;;;;;3.50;2.25;;;15.60;96.70;;;;;;5406422;26;20003;-82
2024/04/12 02:34:04;;;;;;;4.30;2.50;;;15.50;96.70;;;;;;5377049;26;20013;-82
2024/04/12 02:36:33;;;;;;;6.38;2.40;;;15.50;96.70;;;;;;5405334;26;20046;-82
2024/04/12 02:39:06;;;;;;;5.85;2.67;;;15.50;96.70;;;;;;5406941;26;20058;-82
2024/04/12 02:41:38;;;;;;;4.28;2.25;;;15.50;96.70;;;;;;5399229;26;20134;-82
2024/04/12 02:44:07;;;;;;;4.03;2.20;;;15.50;96.70;;;;;;5370348;26;20840;-83
2024/04/12 02:46:35;;;;;;;4.97;2.83;;;15.50;96.70;;;;;;5373669;26;20402;-82
2024/04/12 02:49:10;;;;;;;2.95;2.35;;;15.50;96.70;;;;;;5342146;26;20011;-81
2024/04/12 02:51:47;;;;;;;3.60;2.17;;;15.50;96.70;;;;;;5371146;26;20004;-82
2024/04/12 02:54:16;;;;;;;4.78;2.58;;;15.50;96.70;;;;;;5374638;26;20018;-82
2024/04/12 02:56:48;;;;;;;4.30;2.60;;;15.50;96.70;;;;;;5406901;26;20441;-83
2024/04/12 02:59:16;;;;;;;4.43;2.38;;;15.50;96.70;;;;;;5405440;26;20015;-82
2024/04/12 03:01:46;;;;;;;5.78;2.72;;;15.50;96.70;;;;;;5409510;26;20015;-82
2024/04/12 03:04:17;;;;;;;3.95;2.47;;;15.50;96.70;;;;;;5379879;26;20012;-82
2024/04/12 03:06:47;;;;;;;3.00;2.55;;;15.50;96.70;;;;;;5409433;26;20459;-82
2024/04/12 03:09:18;;;;;;;5.05;2.67;;;15.50;96.70;;;;;;5375527;26;20093;-82
2024/04/12 03:11:52;;;;;;;4.20;2.50;;;15.60;96.70;;;;;;5380578;26;20027;-82
2024/04/12 03:14:21;;;;;;;5.50;2.30;;;15.50;96.70;;;;;;5373885;26;20019;-82
2024/04/12 03:16:53;;;;;;;3.03;2.28;;;15.50;96.70;;;;;;5400297;26;20068;-82
2024/04/12 03:19:22;;;;;;;6.90;2.70;;;15.40;96.70;;;;;;5409270;26;20388;-82
2024/04/12 03:21:52;;;;;;;3.10;2.47;;;15.50;96.70;;;;;;5380092;26;20022;-82
2024/04/12 03:24:25;;;;;;;2.47;2.08;;;15.50;96.70;;;;;;5376199;26;20023;-82
2024/04/12 03:26:58;;;;;;;3.50;2.70;;;15.50;96.70;;;;;;5422730;26;20055;-82
2024/04/12 03:29:29;;;;;;;4.75;2.80;;;15.40;96.70;;;;;;5373735;26;20453;-82
2024/04/12 03:31:59;;;;;;;5.13;2.50;;;15.50;96.70;;;;;;5375067;26;20000;-82
2024/04/12 03:34:30;;;;;;;5.82;2.67;;;15.40;96.70;;;;;;5374677;26;20011;-81
2024/04/12 03:37:16;;;;;;;5.63;2.80;;;15.40;96.70;;;;;;5374073;26;20019;-82
2024/04/12 03:39:48;;;;;;;6.23;2.80;;;15.40;96.70;;;;;;5403834;26;20008;-81
2024/04/12 03:42:28;;;;;;;6.80;2.58;;;15.40;96.70;;;;;;5402829;26;20077;-82
2024/04/12 03:44:58;;;;;;;3.10;2.60;;;15.40;96.70;;;;;;5373444;26;20994;-83
2024/04/12 03:47:36;;;;;;;3.70;2.30;;;15.30;96.70;;;;;;5374005;26;20115;-82
2024/04/12 03:50:16;;;;;;;4.65;2.53;;;15.30;96.70;;;;;;5345072;26;20015;-81
2024/04/12 03:52:44;;;;;;;4.10;2.80;;;15.20;96.70;;;;;;5374134;26;20077;-82
2024/04/12 03:55:13;;;;;;;5.95;3.15;;;15.20;96.70;;;;;;5398850;26;20078;-82
2024/04/12 03:57:45;;;;;;;4.80;3.00;;;15.10;96.70;;;;;;5379748;26;20019;-82
2024/04/12 04:00:14;;;;;;;3.78;2.95;;;15.00;96.70;;;;;;5408160;26;20420;-82
2024/04/12 04:02:48;;;;;;;3.80;2.78;;;15.00;96.70;;;;;;5396768;26;19996;-82
2024/04/12 04:05:17;;;;;;;3.50;2.90;;;15.10;96.70;;;;;;5377757;26;20031;-82
2024/04/12 04:07:45;;;;;;;3.08;2.65;;;15.10;96.70;;;;;;5363426;26;20019;-80
2024/04/12 04:10:15;;;;;;;4.85;3.08;;;15.00;96.70;;;;;;5426983;26;20020;-79
2024/04/12 04:12:49;;;;;;;5.28;2.97;;;15.00;96.70;;;;;;5379331;26;20007;-81
2024/04/12 04:15:24;;;;;;;6.07;3.17;;;14.90;96.70;;;;;;5374204;26;20446;-81
2024/04/12 04:17:53;;;;;;;4.43;3.15;;;14.90;96.70;;;;;;5345214;26;20000;-81
2024/04/12 04:20:27;;;;;;;4.53;2.58;;;15.00;96.70;;;;;;5374251;26;20461;-81
2024/04/12 04:23:02;;;;;;;5.18;2.33;;;14.90;96.70;;;;;;5345053;26;20306;-81
2024/04/12 04:25:31;;;;;;;3.13;2.60;;;14.80;96.70;;;;;;5371212;26;20115;-81
2024/04/12 04:28:03;;;;;;;4.93;2.42;;;14.90;96.70;;;;;;5382199;26;20022;-81
2024/04/12 04:30:35;;;;;;;5.22;2.70;;;14.90;96.70;;;;;;5373365;26;20001;-80
2024/04/12 04:33:04;;;;;;;4.82;2.40;;;14.90;96.70;;;;;;5373129;26;20000;-81
2024/04/12 04:35:33;;;;;;;4.88;2.50;;;14.90;96.70;;;;;;5374120;26;19996;-81
2024/04/12 04:38:03;;;;;;;5.95;2.90;;;14.90;96.70;;;;;;5373926;26;20396;-80
2024/04/12 04:40:35;;;;;;;4.75;2.47;;;14.90;96.70;;;;;;5375444;26;20012;-81
2024/04/12 04:43:08;;;;;;;3.42;2.50;;;14.90;96.70;;;;;;5400601;26;20022;-81
2024/04/12 04:45:36;;;;;;;4.22;2.38;;;14.80;96.70;;;;;;5439420;26;19999;-80
2024/04/12 04:48:05;;;;;;;3.38;2.60;;;14.80;96.70;;;;;;5380767;26;19999;-80
2024/04/12 04:50:41;;;;;;;3.17;2.60;;;14.80;96.70;;;;;;5409783;26;20014;-81
2024/04/12 04:53:11;;;;;;;4.93;2.40;;;14.70;96.70;;;;;;5382515;26;19999;-81
2024/04/12 04:55:44;;;;;;;5.95;2.78;;;14.70;96.70;;;;;;5396779;26;20019;-80
2024/04/12 04:58:17;;;;;;;4.07;3.00;;;14.70;96.70;;;;;;5396742;26;20014;-81
2024/04/12 05:00:49;;;;;;;6.07;2.97;;;14.70;96.70;;;;;;5387647;26;20001;-79
2024/04/12 05:03:18;;;;;;;4.97;2.55;;;14.80;96.70;;;;;;5374498;26;20000;-81
2024/04/12 05:05:49;;;;;;;5.35;2.63;;;14.90;96.70;;;;;;5403318;26;20295;-81
2024/04/12 05:08:20;;;;;;;4.63;2.72;;;14.90;96.70;;;;;;5409570;26;20014;-81
2024/04/12 05:10:52;;;;;;;4.18;2.80;;;14.90;96.70;;;;;;5406104;26;20022;-81
2024/04/12 05:13:30;;;;;;;4.22;2.67;;;14.90;96.70;;;;;;5409533;26;20008;-81
2024/04/12 05:15:58;;;;;;;5.97;2.90;;;15.00;96.70;;;;;;5388012;26;20004;-80
2024/04/12 05:18:27;;;;;;;5.28;3.10;;;15.00;96.70;;;;;;5374530;26;20000;-81
2024/04/12 05:20:57;;;;;;;4.57;3.00;;;15.00;96.70;;;;;;5374836;26;20011;-81
2024/04/12 05:23:28;;;;;;;5.00;3.33;;;15.00;96.70;;;;;;5379215;26;20859;-81
2024/04/12 05:25:57;;;;;;;5.50;3.60;;;15.00;96.70;;;;;;5397979;26;20419;-81
2024/04/12 05:28:29;;;;;;;7.18;3.47;;;15.00;96.70;;;;;;5400200;26;20007;-80
2024/04/12 05:30:58;;;;;;;8.45;4.10;;;15.10;96.70;;;;;;5408347;26;20022;-81
2024/04/12 05:33:29;;;;;;;7.45;3.88;;;15.10;96.70;;;;;;5380328;26;20068;-80
2024/04/12 05:36:01;;;;;;;7.88;3.40;;;15.10;96.70;;;;;;5410527;26;20010;-80
2024/04/12 05:38:33;;;;;;;5.25;3.53;;;15.10;96.70;;;;;;5431272;26;20537;-80
2024/04/12 05:41:04;;;;;;;5.85;3.08;;;15.10;96.70;;;;;;5405036;26;20018;-80
2024/04/12 05:43:38;;;;;;;6.50;3.70;;;15.10;96.70;;;;;;5380342;26;20392;-80
2024/04/12 05:46:07;;;;;;;7.85;3.97;;;15.20;96.70;;;;;;5379853;26;20035;-81
2024/04/12 05:48:36;;;;;;;7.30;4.78;;;15.30;96.70;;;;;;5401246;26;20465;-80
2024/04/12 05:51:09;;;;;;;15.32;9.55;;;15.30;96.70;;;;;;5374232;26;20019;-81
2024/04/12 05:53:38;;;;;;;19.88;10.60;;;15.20;96.70;;;;;;5402997;26;20040;-81
2024/04/12 05:56:25;;;;;;;14.63;10.10;;;15.30;96.70;;;;;;5349246;26;20519;-80
2024/04/12 05:59:00;;;;;;;12.63;9.07;;;15.30;96.70;;;;;;5396315;26;20084;-81
2024/04/12 06:01:33;;;;;;;16.23;9.00;;;15.40;96.70;;;;;;5379535;26;20007;-80
2024/04/12 06:04:04;;;;;;;10.73;7.57;;;15.40;96.70;;;;;;5373230;26;20474;-80
2024/04/12 06:06:33;;;;;;;10.63;7.90;;;15.50;96.70;;;;;;5404387;26;20462;-81
2024/04/12 06:09:05;;;;;;;11.95;6.65;;;15.40;96.70;;;;;;5373779;26;20059;-81
2024/04/12 06:11:42;;;;;;;10.07;6.40;;;15.50;96.70;;;;;;5375969;26;20004;-81
2024/04/12 06:14:14;;;;;;;8.85;5.78;;;15.50;96.70;;;;;;5373768;26;20776;-81
2024/04/12 06:16:46;;;;;;;10.52;5.90;;;15.50;96.70;;;;;;5373226;26;20458;-81
2024/04/12 06:19:18;;;;;;;11.80;6.25;;;15.50;96.70;;;;;;5348768;26;20027;-81
2024/04/12 06:21:48;;;;;;;7.93;5.75;;;15.60;96.70;;;;;;5376091;26;20160;-81
2024/04/12 06:24:26;;;;;;;8.93;6.30;;;15.70;96.70;;;;;;5348198;26;19996;-81
2024/04/12 06:26:55;;;;;;;8.63;5.75;;;15.70;96.70;;;;;;5355015;26;20026;-80
2024/04/12 06:29:30;;;;;;;11.35;5.72;;;15.80;96.70;;;;;;5372693;26;20306;-81
2024/04/12 06:32:07;;;;;;;9.30;5.25;;;15.80;96.70;;;;;;5372942;26;20081;-80
2024/04/12 06:34:41;;;;;;;9.27;5.47;;;15.90;96.70;;;;;;5373760;26;20048;-81
2024/04/12 06:37:13;;;;;;;10.40;5.78;;;15.80;96.70;;;;;;5374584;26;20500;-81
2024/04/12 06:39:44;;;;;;;8.90;5.25;;;15.80;96.70;;;;;;5374884;26;20001;-81
2024/04/12 06:42:14;;;;;;;6.70;4.97;;;15.80;96.70;;;;;;5387538;26;20470;-81
2024/04/12 06:44:53;;;;;;;9.35;5.45;;;15.90;96.70;;;;;;5374910;26;20012;-81
2024/04/12 06:47:25;;;;;;;15.05;6.32;;;15.90;96.70;;;;;;5368737;26;20015;-81
2024/04/12 06:50:08;;;;;;;10.57;5.95;;;16.00;96.70;;;;;;5410967;26;20007;-80
2024/04/12 06:52:37;;;;;;;7.35;5.90;;;16.10;96.70;;;;;;5403575;26;19998;-80
2024/04/12 06:55:07;;;;;;;9.15;6.38;;;16.30;96.70;;;;;;5393770;26;20077;-78
2024/04/12 06:57:38;;;;;;;9.98;6.60;;;16.30;96.70;;;;;;5384283;26;20004;-78
2024/04/12 07:00:12;;;;;;;9.35;6.32;;;16.30;96.70;;;;;;5430250;26;20455;-79
2024/04/12 07:02:46;;;;;;;11.40;7.35;;;16.30;96.70;;;;;;5396159;26;20008;-78
2024/04/12 07:05:17;;;;;;;9.55;5.95;;;16.40;96.70;;;;;;5352833;26;20004;-77
2024/04/12 07:07:51;;;;;;;11.27;6.57;;;16.50;96.70;;;;;;5407047;26;20048;-77
2024/04/12 07:10:20;;;;;;;6.60;5.57;;;16.60;96.70;;;;;;5409977;26;20770;-81
2024/04/12 07:12:51;;;;;;;8.52;5.50;;;16.60;96.70;;;;;;5384664;26;20019;-80
2024/04/12 07:15:23;;;;;;;8.23;6.10;;;16.70;96.70;;;;;;5378223;26;19999;-79
2024/04/12 07:17:57;;;;;;;9.40;6.28;;;16.80;96.70;;;;;;5409111;26;19996;-79
2024/04/12 07:20:33;;;;;;;9.60;6.40;;;16.90;96.70;;;;;;5375984;26;20060;-79
2024/04/12 07:23:03;;;;;;;10.80;7.20;;;17.00;96.70;;;;;;5410361;26;20008;-77
2024/04/12 07:25:33;;;;;;;8.07;6.60;;;17.10;96.70;;;;;;5408999;26;20009;-80
2024/04/12 07:28:06;;;;;;;7.90;6.03;;;17.20;96.70;;;;;;5401306;26;20345;-78
2024/04/12 07:30:39;;;;;;;8.60;6.10;;;17.30;96.70;;;;;;5405099;26;20089;-77
2024/04/12 07:33:11;;;;;;;8.55;5.65;;;17.30;96.70;;;;;;5411892;26;20014;-76
2024/04/12 07:35:48;;;;;;;8.40;6.03;;;17.40;96.70;;;;;;5414378;26;20030;-77
2024/04/12 07:38:17;;;;;;;10.38;6.05;;;17.50;96.70;;;;;;5375879;26;20055;-77
2024/04/12 07:40:53;;;;;;;8.25;5.20;;;17.50;96.70;;;;;;5371601;26;20029;-76
2024/04/12 07:43:23;;;;;;;8.85;5.85;;;17.60;96.70;;;;;;5372278;26;20012;-77
2024/04/12 07:45:56;;;;;;;6.88;5.20;;;17.60;96.70;;;;;;5371163;26;19997;-78
2024/04/12 07:48:25;;;;;;;8.80;5.32;;;17.80;96.70;;;;;;5398119;26;20006;-76
2024/04/12 07:51:00;;;;;;;9.65;5.32;;;17.80;96.70;;;;;;5386118;26;20454;-77
2024/04/12 07:53:34;;;;;;;9.18;6.00;;;17.90;96.70;;;;;;5382872;26;20008;-76
2024/04/12 07:56:09;;;;;;;8.02;5.22;;;18.00;96.70;;;;;;5373978;26;20530;-79
2024/04/12 07:58:40;;;;;;;9.40;6.38;;;18.10;96.70;;;;;;5443041;26;20014;-77
2024/04/12 08:01:16;;;;;;;8.65;5.55;;;18.20;96.70;;;;;;5422118;26;20097;-77
2024/04/12 08:03:56;;;;;;;10.65;5.78;;;18.30;96.70;;;;;;5438967;26;20410;-79
2024/04/12 08:06:55;;;;;;;10.63;6.10;;;18.50;96.70;;;;;;5390598;26;20015;-79
2024/04/12 08:09:40;;;;;;;8.02;5.72;;;18.60;96.70;;;;;;5377470;26;20464;-81
2024/04/12 08:12:14;;;;;;;12.15;6.07;;;18.60;96.70;;;;;;5387424;26;20017;-81
2024/04/12 08:15:06;;;;;;;13.63;6.95;;;18.80;96.70;;;;;;5381615;26;19996;-82
2024/04/12 08:17:43;;;;;;;13.88;7.47;;;18.90;96.70;;;;;;5404419;26;20004;-82
2024/04/12 08:20:13;;;;;;;12.65;7.60;;;19.00;96.70;;;;;;5404843;26;20054;-81
2024/04/12 08:22:44;;;;;;;10.18;7.03;;;19.10;96.70;;;;;;5380649;26;20017;-80
2024/04/12 08:25:18;;;;;;;15.15;7.72;;;19.10;96.70;;;;;;5410412;26;20000;-82
2024/04/12 08:27:54;;;;;;;16.05;8.73;;;19.30;96.70;;;;;;5349499;26;20011;-83
2024/04/12 08:30:24;;;;;;;19.35;9.10;;;19.40;96.70;;;;;;5374417;26;20018;-80
2024/04/12 08:33:02;;;;;;;15.52;8.80;;;19.50;96.70;;;;;;5433845;26;19998;-80
2024/04/12 08:35:36;;;;;;;13.98;7.47;;;19.60;96.70;;;;;;5441489;26;20368;-80
2024/04/12 08:38:12;;;;;;;11.52;6.18;;;19.70;96.70;;;;;;5438211;26;20040;-82
2024/04/12 08:40:44;;;;;;;11.35;6.68;;;19.90;96.70;;;;;;5374674;26;20015;-83
2024/04/12 08:43:15;;;;;;;10.27;6.10;;;20.00;96.70;;;;;;5408151;26;20007;-81
2024/04/12 08:45:48;;;;;;;8.88;5.90;;;20.10;96.70;;;;;;5397048;26;20421;-83
2024/04/12 08:48:22;;;;;;;10.20;5.95;;;20.10;96.70;;;;;;5415980;26;20079;-83
2024/04/12 08:51:04;;;;;;;11.10;5.43;;;20.20;96.70;;;;;;5437449;26;20433;-81
2024/04/12 08:53:34;;;;;;;8.90;5.25;;;20.20;96.70;;;;;;5430774;26;19999;-83
2024/04/12 08:56:04;;;;;;;10.77;5.63;;;20.30;96.70;;;;;;5429310;26;20011;-83
2024/04/12 08:58:35;;;;;;;8.25;5.15;;;20.40;96.70;;;;;;5426879;26;20010;-83
2024/04/12 09:01:06;;;;;;;8.68;4.97;;;20.40;96.70;;;;;;5441376;26;20010;-84
2024/04/12 09:03:40;;;;;;;9.13;4.72;;;20.60;96.70;;;;;;5434551;26;20003;-81
2024/04/12 09:06:14;;;;;;;8.90;5.40;;;20.70;96.70;;;;;;5414987;26;20018;-82
2024/04/12 09:08:44;;;;;;;7.32;4.60;;;20.70;96.70;;;;;;5422107;26;20039;-82
2024/04/12 09:11:13;;;;;;;8.30;4.40;;;20.80;96.70;;;;;;5407987;26;20029;-82
2024/04/12 09:13:46;;;;;;;7.40;4.10;;;20.90;96.70;;;;;;5394925;26;20563;-82
2024/04/12 09:16:19;;;;;;;9.88;4.85;;;21.10;96.70;;;;;;5418817;26;20011;-81
2024/04/12 09:18:53;;;;;;;8.25;4.68;;;21.20;96.70;;;;;;5372592;26;20015;-81
2024/04/12 09:21:24;;;;;;;8.07;4.03;;;21.30;96.70;;;;;;5372774;26;20051;-80
2024/04/12 09:23:58;;;;;;;6.82;3.95;;;21.30;96.70;;;;;;5372992;26;20109;-81
2024/04/12 09:26:39;;;;;;;8.20;4.53;;;21.40;96.70;;;;;;5384262;26;20000;-80
2024/04/12 09:29:11;;;;;;;7.18;4.35;;;21.60;96.70;;;;;;5406159;26;20083;-81
2024/04/12 09:34:35;;;;;;;9.35;5.43;;;21.80;96.70;;;;;;5415949;26;20080;-82
2024/04/12 09:42:50;;;;;;;6.15;4.15;;;22.20;96.70;;;;;;5403197;26;20012;-82
2024/04/12 09:45:22;;;;;;;7.88;4.22;;;22.30;96.70;;;;;;5407661;26;20008;-82
2024/04/12 10:38:46;;;;;;;8.02;4.60;;;24.70;96.70;;;;;;5400900;26;20416;-83
2024/04/12 10:41:19;;;;;;;8.38;4.93;;;24.80;96.70;;;;;;5410885;26;20829;-83
2024/04/12 10:43:51;;;;;;;7.93;4.38;;;24.70;96.70;;;;;;5409209;26;20022;-84
2024/04/12 10:46:21;;;;;;;8.57;5.32;;;24.50;96.70;;;;;;5381285;26;20004;-85
2024/04/12 10:48:52;;;;;;;9.77;5.00;;;24.80;96.70;;;;;;5383035;26;20003;-84
2024/04/12 10:51:23;;;;;;;5.50;4.55;;;24.90;96.70;;;;;;5413455;26;20426;-83
2024/04/12 10:53:55;;;;;;;6.72;4.75;;;25.20;96.70;;;;;;5411906;26;20133;-82
2024/04/12 10:56:27;;;;;;;6.47;4.50;;;25.10;96.70;;;;;;5380678;26;20011;-84
2024/04/12 10:58:59;;;;;;;6.22;4.22;;;25.10;96.70;;;;;;5362700;26;20012;-82
2024/04/12 11:01:29;;;;;;;6.68;4.00;;;25.20;96.70;;;;;;5379661;26;20023;-82
2024/04/12 11:04:02;;;;;;;5.15;3.85;;;25.50;96.70;;;;;;5375381;26;20000;-82
2024/04/12 11:06:33;;;;;;;7.15;4.10;;;25.50;96.70;;;;;;5404710;26;20000;-83
2024/04/12 11:09:04;;;;;;;6.65;4.03;;;25.50;96.70;;;;;;5375505;26;19996;-84
2024/04/12 11:11:43;;;;;;;5.80;3.53;;;25.40;96.70;;;;;;5409967;26;20780;-83
2024/04/12 11:14:26;;;;;;;6.05;2.53;;;25.30;96.70;;;;;;5395009;26;20674;-82
2024/04/12 11:31:14;;;;;;;5.28;2.22;;;25.80;96.70;;;;;;5403990;26;20094;-83
2024/04/12 11:33:51;;;;;;;3.78;1.67;;;26.10;96.70;;;;;;5399319;26;20435;-83
2024/04/12 11:36:39;;;;;;;4.65;1.98;;;26.10;96.70;;;;;;5374791;26;20410;-84
2024/04/12 11:39:17;;;;;;;3.03;1.85;;;26.10;96.70;;;;;;5375255;26;20012;-83
2024/04/12 11:41:50;;;;;;;3.42;1.90;;;26.20;96.70;;;;;;5375452;26;20000;-83
2024/04/12 11:44:22;;;;;;;2.30;1.45;;;26.30;96.70;;;;;;5375232;26;20008;-84
2024/04/12 11:47:02;;;;;;;3.00;1.80;;;26.80;96.70;;;;;;5375722;26;20004;-83
2024/04/12 11:49:49;;;;;;;5.85;2.10;;;26.60;96.70;;;;;;5377037;26;20011;-82
2024/04/12 11:52:18;;;;;;;4.22;1.77;;;26.70;96.70;;;;;;5410097;26;20003;-83
2024/04/12 11:54:56;;;;;;;4.88;2.10;;;26.90;96.70;;;;;;5409449;26;20004;-84
2024/04/12 11:57:29;;;;;;;5.00;1.45;;;27.30;96.70;;;;;;5395550;26;20008;-83
2024/04/12 12:00:08;;;;;;;3.33;1.83;;;27.40;96.70;;;;;;5359013;26;20103;-82
2024/04/12 12:02:43;;;;;;;6.05;1.65;;;27.60;96.70;;;;;;5382320;26;20003;-84
2024/04/12 12:05:17;;;;;;;2.97;1.85;;;27.30;96.70;;;;;;5374279;26;20037;-82
2024/04/12 12:07:47;;;;;;;2.10;1.50;;;27.20;96.70;;;;;;5374040;26;20447;-83
2024/04/12 12:10:17;;;;;;;4.70;1.60;;;27.60;96.70;;;;;;5374202;26;20000;-83
2024/04/12 12:13:21;;;;;;;6.05;1.80;;;27.90;96.70;;;;;;5374924;26;20004;-82
2024/04/12 12:15:54;;;;;;;2.47;1.65;;;28.10;96.70;;;;;;5402190;26;20011;-82
2024/04/12 12:18:27;;;;;;;2.72;1.40;;;28.30;96.70;;;;;;5377837;26;20070;-81
2024/04/12 12:20:58;;;;;;;3.45;1.92;;;28.40;96.70;;;;;;5388565;26;20005;-82
2024/04/12 12:23:27;;;;;;;4.97;1.92;;;28.20;96.70;;;;;;5393511;26;20015;-83
2024/04/12 12:25:57;;;;;;;4.68;1.55;;;28.30;96.70;;;;;;5380287;26;20050;-83
2024/04/12 12:28:27;;;;;;;3.70;1.50;;;28.40;96.70;;;;;;5379914;26;20072;-82
2024/04/12 12:30:59;;;;;;;2.70;1.88;;;28.60;96.70;;;;;;5404921;26;20007;-82
2024/04/12 12:33:37;;;;;;;3.45;1.75;;;28.70;96.70;;;;;;5408403;26;20014;-83
2024/04/12 12:36:11;;;;;;;4.90;1.35;;;28.60;96.70;;;;;;5378734;26;20014;-83
2024/04/12 12:38:40;;;;;;;1.77;1.50;;;28.90;96.70;;;;;;5402673;26;20004;-83
2024/04/12 12:41:13;;;;;;;4.38;1.40;;;29.00;96.70;;;;;;5373226;26;20457;-83
2024/04/12 12:43:47;;;;;;;3.60;1.55;;;28.80;96.70;;;;;;5373878;26;20023;-82
2024/04/12 12:46:26;;;;;;;4.85;1.58;;;28.70;96.70;;;;;;5403985;26;20014;-82
2024/04/12 12:48:58;;;;;;;3.15;1.83;;;28.70;96.70;;;;;;5409649;26;20018;-83
2024/04/12 12:51:27;;;;;;;2.22;1.60;;;28.70;96.70;;;;;;5373958;26;20543;-83
2024/04/12 12:53:56;;;;;;;5.93;2.10;;;28.90;96.70;;;;;;5396982;26;20029;-83
2024/04/12 12:56:31;;;;;;;3.78;2.50;;;29.00;96.70;;;;;;5373724;26;20001;-83
2024/04/12 12:59:00;;;;;;;6.00;1.80;;;28.90;96.70;;;;;;5407985;26;20456;-83
2024/04/12 13:01:38;;;;;;;3.97;1.70;;;29.10;96.70;;;;;;5401032;26;20015;-83
2024/04/12 13:04:11;;;;;;;2.63;1.83;;;29.20;96.70;;;;;;5374391;26;20000;-83
2024/04/12 13:06:43;;;;;;;9.43;1.95;;;29.20;96.70;;;;;;5353801;26;20429;-84
2024/04/12 13:09:17;;;;;;;2.28;1.40;;;29.00;96.70;;;;;;5402264;26;20018;-83
2024/04/12 13:11:47;;;;;;;2.90;1.98;;;29.00;96.70;;;;;;5390348;26;20015;-82
2024/04/12 13:14:17;;;;;;;3.20;2.05;;;29.00;96.70;;;;;;5373109;26;20014;-82
2024/04/12 13:16:50;;;;;;;2.95;1.77;;;28.80;96.70;;;;;;5374743;26;20011;-82
2024/04/12 13:19:21;;;;;;;3.00;1.50;;;29.00;96.70;;;;;;5348015;26;20016;-82
2024/04/12 13:21:52;;;;;;;3.72;1.63;;;29.20;96.70;;;;;;5398003;26;20004;-83
2024/04/12 13:24:23;;;;;;;3.28;1.65;;;29.30;96.70;;;;;;5378930;26;20003;-82
2024/04/12 13:26:54;;;;;;;3.97;1.77;;;29.40;96.70;;;;;;5407639;26;20013;-83
2024/04/12 13:29:29;;;;;;;2.53;1.73;;;29.60;96.70;;;;;;5405985;26;19995;-82
2024/04/12 13:32:01;;;;;;;2.97;1.60;;;29.70;96.70;;;;;;5344499;26;20012;-82
2024/04/12 13:34:34;;;;;;;3.58;1.80;;;29.70;96.70;;;;;;5373127;26;20000;-83
2024/04/12 13:37:05;;;;;;;4.40;1.63;;;29.70;96.70;;;;;;5406408;26;19997;-83
2024/04/12 13:39:36;;;;;;;2.65;1.55;;;29.70;96.70;;;;;;5408528;26;20149;-83
2024/04/12 13:42:10;;;;;;;4.10;1.83;;;29.90;96.70;;;;;;5438488;26;19999;-82
2024/04/12 13:53:09;;;;;;;3.22;1.80;;;30.40;96.70;;;;;;5413551;26;20020;-83
2024/04/12 13:55:42;;;;;;;4.97;1.73;;;30.50;96.70;;;;;;5372131;26;20001;-83
2024/04/12 13:58:12;;;;;;;2.80;1.60;;;30.80;96.70;;;;;;5393673;26;20485;-83
2024/04/12 14:00:48;;;;;;;3.78;1.80;;;30.90;96.70;;;;;;5392801;26;20000;-83
2024/04/12 14:03:23;;;;;;;3.95;1.70;;;31.00;96.70;;;;;;5372416;26;20001;-83
2024/04/12 14:05:56;;;;;;;3.95;1.50;;;31.30;96.70;;;;;;5401140;26;20047;-82
2024/04/12 14:08:28;;;;;;;6.80;1.63;;;31.20;96.70;;;;;;5396215;26;20059;-82
2024/04/12 14:10:57;;;;;;;3.38;1.50;;;31.50;96.70;;;;;;5373035;26;20012;-83
2024/04/12 14:13:28;;;;;;;4.72;2.00;;;31.60;96.70;;;;;;5402627;26;19996;-84
2024/04/12 14:15:59;;;;;;;2.40;1.70;;;31.70;96.70;;;;;;5382160;26;20008;-83
2024/04/12 14:18:33;;;;;;;3.10;1.60;;;31.80;96.70;;;;;;5377648;26;20366;-82
2024/04/12 14:21:04;;;;;;;4.05;1.95;;;31.90;96.70;;;;;;5404833;26;20080;-83
2024/04/12 14:23:35;;;;;;;4.93;2.00;;;32.10;96.70;;;;;;5408021;26;20018;-84
2024/04/12 14:26:07;;;;;;;2.85;1.75;;;32.30;96.70;;;;;;5371400;26;20015;-83
2024/04/12 14:28:38;;;;;;;3.72;1.77;;;32.50;96.70;;;;;;5364784;26;20000;-83
2024/04/12 14:31:10;;;;;;;2.90;1.58;;;32.60;96.70;;;;;;5389343;26;20447;-84
2024/04/12 14:33:50;;;;;;;4.57;1.55;;;32.80;96.70;;;;;;5406379;26;20004;-84
2024/04/12 14:36:19;;;;;;;2.92;1.92;;;33.10;96.70;;;;;;5389928;26;20043;-82